Time;durP1;ratioP1;P1;durP2;ratioP2;P2;SDS_P1;SDS_P2;PMS_P1;PMS_P2;Temp;Humidity;BMP_temperature;BMP_pressure;BME280_temperature;BME280_humidity;BME280_pressure;Samples;Min_cycle;Max_cycle;Signal;HPM_P1;HPM_P2
2023/05/15 00:02:24;;;;;;;648.53;609.90;;;15.40;88.60;;;;;;4998495;28;20205;-68
2023/05/15 00:04:51;;;;;;;638.17;600.07;;;15.50;88.80;;;;;;5003497;28;20196;-68
2023/05/15 00:07:21;;;;;;;638.13;599.97;;;15.50;88.60;;;;;;5002936;28;20196;-63
2023/05/15 00:09:49;;;;;;;625.27;587.67;;;15.60;89.10;;;;;;5007695;28;20263;-65
2023/05/15 00:12:16;;;;;;;586.00;552.13;;;15.70;88.60;;;;;;4999675;28;20644;-68
2023/05/15 00:14:43;;;;;;;556.27;525.07;;;15.90;88.50;;;;;;5002981;28;20189;-66
2023/05/15 00:17:12;;;;;;;497.40;470.60;;;16.10;88.20;;;;;;5007226;28;20200;-69
2023/05/15 00:19:39;;;;;;;428.67;407.17;;;16.20;87.60;;;;;;5008576;28;20185;-65
2023/05/15 00:22:06;;;;;;;404.87;384.77;;;16.00;85.90;;;;;;5010114;28;20197;-68
2023/05/15 00:24:34;;;;;;;360.77;342.93;;;16.10;86.80;;;;;;5002314;28;20171;-69
2023/05/15 00:27:02;;;;;;;340.80;324.10;;;16.40;87.00;;;;;;5005507;28;20232;-68
2023/05/15 00:29:29;;;;;;;299.10;284.23;;;16.70;85.90;;;;;;5005579;28;20362;-66
2023/05/15 00:31:57;;;;;;;227.33;215.60;;;16.90;85.20;;;;;;5007237;28;20673;-64
2023/05/15 00:34:25;;;;;;;161.23;152.93;;;17.30;84.30;;;;;;5001230;28;20243;-66
2023/05/15 00:36:52;;;;;;;122.73;116.20;;;17.50;82.70;;;;;;5005749;28;20322;-63
2023/05/15 00:39:19;;;;;;;96.60;91.40;;;17.60;82.60;;;;;;5007326;28;20699;-66
2023/05/15 00:41:48;;;;;;;78.20;73.83;;;17.80;82.20;;;;;;5005146;28;20198;-66
2023/05/15 00:44:19;;;;;;;61.73;58.03;;;17.80;82.20;;;;;;5011272;28;20223;-67
2023/05/15 00:46:48;;;;;;;41.70;39.17;;;17.90;81.60;;;;;;5006170;28;20192;-68
2023/05/15 00:49:16;;;;;;;37.87;35.33;;;17.80;81.30;;;;;;5006586;28;20675;-67
2023/05/15 00:51:44;;;;;;;28.23;26.17;;;18.00;81.20;;;;;;5004066;28;20196;-63
2023/05/15 00:54:12;;;;;;;26.17;24.17;;;18.10;81.70;;;;;;5012325;28;20657;-67
2023/05/15 00:56:40;;;;;;;22.17;20.57;;;18.20;81.30;;;;;;5007674;28;20591;-65
2023/05/15 00:59:09;;;;;;;19.67;18.27;;;18.20;80.70;;;;;;5004915;28;20652;-63
2023/05/15 01:01:37;;;;;;;17.97;16.60;;;18.20;80.80;;;;;;5006214;28;20201;-64
2023/05/15 01:04:04;;;;;;;17.03;15.87;;;18.40;81.20;;;;;;5004539;28;20196;-65
2023/05/15 01:06:32;;;;;;;12.87;11.57;;;18.70;80.80;;;;;;5008430;28;20196;-64
2023/05/15 01:09:01;;;;;;;10.73;9.73;;;18.80;80.00;;;;;;5006216;28;20793;-64
2023/05/15 01:11:38;;;;;;;10.37;7.97;;;19.10;79.60;;;;;;5006485;28;20197;-64
2023/05/15 01:14:07;;;;;;;11.10;6.63;;;19.30;79.20;;;;;;5005558;28;20189;-62
2023/05/15 01:16:36;;;;;;;7.37;6.40;;;19.40;78.40;;;;;;5008504;28;20287;-64
2023/05/15 01:19:04;;;;;;;6.87;5.90;;;19.50;77.50;;;;;;5003953;28;20185;-63
2023/05/15 01:21:37;;;;;;;8.90;5.10;;;19.50;78.70;;;;;;5008898;28;20181;-63
2023/05/15 01:24:13;;;;;;;7.23;4.10;;;19.70;78.10;;;;;;5010829;28;20616;-63
2023/05/15 01:26:47;;;;;;;9.37;4.63;;;19.90;77.40;;;;;;5003978;28;20185;-63
2023/05/15 01:29:29;;;;;;;5.10;3.30;;;20.00;76.50;;;;;;5007337;28;20193;-63
2023/05/15 01:32:04;;;;;;;6.73;4.27;;;19.70;77.10;;;;;;5004305;28;20223;-65
2023/05/15 01:34:51;;;;;;;9.63;3.90;;;19.90;77.80;;;;;;5003286;28;20315;-64
2023/05/15 01:37:24;;;;;;;9.10;3.47;;;20.20;77.40;;;;;;4965891;28;20238;-67
2023/05/15 01:39:56;;;;;;;7.37;3.43;;;20.30;76.40;;;;;;5008042;28;20613;-65
2023/05/15 01:42:29;;;;;;;9.57;2.87;;;20.30;75.80;;;;;;5003551;28;20189;-64
2023/05/15 01:45:01;;;;;;;6.60;2.60;;;20.40;75.50;;;;;;5010664;28;20546;-64
2023/05/15 01:47:38;;;;;;;6.50;2.87;;;20.50;74.80;;;;;;5006117;28;20635;-65
2023/05/15 01:50:08;;;;;;;7.87;2.20;;;20.50;75.60;;;;;;5005969;28;20264;-68
2023/05/15 01:52:40;;;;;;;3.27;1.93;;;20.20;74.60;;;;;;5003958;28;20247;-65
2023/05/15 01:55:09;;;;;;;2.63;1.83;;;20.10;75.30;;;;;;5003296;28;20580;-68
2023/05/15 01:57:37;;;;;;;5.60;2.10;;;20.30;75.90;;;;;;5010455;28;20198;-66
2023/05/15 02:00:07;;;;;;;5.37;2.20;;;20.20;75.70;;;;;;5007190;28;20178;-65
2023/05/15 02:02:34;;;;;;;1.93;1.63;;;20.00;75.50;;;;;;4995561;28;20193;-67
2023/05/15 02:05:03;;;;;;;4.07;2.00;;;20.20;75.70;;;;;;5005121;28;20185;-66
2023/05/15 02:07:32;;;;;;;3.37;2.10;;;20.30;75.30;;;;;;5005190;28;20185;-65
2023/05/15 02:10:01;;;;;;;5.53;1.93;;;20.30;74.70;;;;;;5007436;28;20220;-65
2023/05/15 02:12:29;;;;;;;4.07;1.90;;;20.30;75.10;;;;;;5009759;28;20184;-64
2023/05/15 02:14:58;;;;;;;3.73;1.70;;;20.50;75.10;;;;;;5006910;28;20240;-64
2023/05/15 02:17:28;;;;;;;1.97;1.23;;;20.40;73.80;;;;;;5003438;28;20575;-65
2023/05/15 02:19:55;;;;;;;4.37;1.20;;;20.30;71.20;;;;;;5007492;28;20263;-67
2023/05/15 02:22:23;;;;;;;2.43;1.00;;;20.40;71.50;;;;;;5000228;28;20680;-66
2023/05/15 02:24:50;;;;;;;2.13;0.93;;;20.60;71.80;;;;;;5000485;28;20185;-64
2023/05/15 02:27:36;;;;;;;4.00;1.30;;;20.80;70.90;;;;;;5002913;28;20675;-66
2023/05/15 02:30:28;;;;;;;2.90;1.03;;;21.00;71.00;;;;;;5002017;28;20217;-69
2023/05/15 02:33:42;;;;;;;5.87;1.30;;;20.90;71.00;;;;;;5009288;28;20190;-69
2023/05/15 02:36:17;;;;;;;1.97;1.23;;;20.80;71.30;;;;;;5005806;28;20185;-68
2023/05/15 02:38:52;;;;;;;2.93;1.10;;;20.80;70.50;;;;;;5005349;28;20670;-68
2023/05/15 02:41:21;;;;;;;3.60;1.10;;;20.70;70.00;;;;;;5008473;28;20590;-67
2023/05/15 02:43:51;;;;;;;3.17;1.13;;;20.80;71.00;;;;;;5001714;28;20237;-68
2023/05/15 02:46:20;;;;;;;7.40;1.20;;;21.00;69.10;;;;;;5002157;28;20224;-69
2023/05/15 02:48:48;;;;;;;5.17;0.90;;;21.10;69.30;;;;;;5005582;28;20185;-69
2023/05/15 02:51:16;;;;;;;2.70;1.20;;;21.00;68.40;;;;;;5005990;28;20235;-66
2023/05/15 02:53:44;;;;;;;5.17;1.20;;;21.00;68.80;;;;;;5001695;28;20192;-67
2023/05/15 02:56:12;;;;;;;5.33;1.10;;;21.00;69.30;;;;;;5006764;28;20185;-69
2023/05/15 02:58:39;;;;;;;2.53;1.00;;;21.10;69.70;;;;;;5001253;28;20180;-66
2023/05/15 03:01:07;;;;;;;3.40;1.10;;;21.20;69.20;;;;;;5003813;28;20185;-66
2023/05/15 03:03:34;;;;;;;3.73;1.27;;;21.20;69.20;;;;;;5002541;28;20272;-68
2023/05/15 03:06:01;;;;;;;3.27;1.00;;;21.30;68.80;;;;;;5005047;28;20652;-67
2023/05/15 03:08:29;;;;;;;4.40;1.27;;;21.30;68.40;;;;;;5006014;28;20196;-67
2023/05/15 03:10:56;;;;;;;2.97;0.93;;;21.30;67.50;;;;;;5006446;28;20270;-66
2023/05/15 03:13:23;;;;;;;3.97;1.00;;;21.40;67.70;;;;;;5003533;28;20339;-65
2023/05/15 03:15:52;;;;;;;3.63;1.17;;;21.30;68.80;;;;;;5006593;28;20283;-68
2023/05/15 03:18:19;;;;;;;3.23;1.23;;;21.50;66.60;;;;;;5003582;28;20529;-67
2023/05/15 03:20:48;;;;;;;4.50;1.00;;;21.50;67.10;;;;;;5002267;28;20605;-66
2023/05/15 03:23:16;;;;;;;1.63;1.00;;;21.70;67.50;;;;;;4998307;28;20189;-65
2023/05/15 03:25:43;;;;;;;1.63;1.33;;;21.70;66.10;;;;;;5001903;28;20547;-67
2023/05/15 03:28:10;;;;;;;2.17;1.00;;;21.80;67.70;;;;;;5006434;28;20747;-64
2023/05/15 03:30:38;;;;;;;2.80;1.30;;;22.00;65.00;;;;;;5003011;28;20299;-67
2023/05/15 03:33:05;;;;;;;2.97;1.07;;;21.70;65.20;;;;;;5004141;28;20664;-66
2023/05/15 03:35:32;;;;;;;3.73;1.20;;;21.60;69.00;;;;;;5006260;28;20209;-67
2023/05/15 03:38:00;;;;;;;2.93;0.90;;;22.20;68.10;;;;;;5002865;28;20657;-67
2023/05/15 03:40:27;;;;;;;3.87;0.80;;;21.80;70.30;;;;;;5004715;28;20188;-65
2023/05/15 03:42:54;;;;;;;2.93;0.90;;;21.20;72.30;;;;;;5006367;28;20189;-66
2023/05/15 03:45:22;;;;;;;6.90;1.43;;;20.40;74.30;;;;;;5007361;28;20201;-68
2023/05/15 03:47:49;;;;;;;5.83;1.30;;;20.00;75.80;;;;;;5000384;28;20663;-68
2023/05/15 03:50:16;;;;;;;4.07;1.17;;;19.70;76.90;;;;;;4999785;28;20712;-65
2023/05/15 03:52:44;;;;;;;7.33;1.10;;;19.30;78.30;;;;;;5005159;28;20245;-68
2023/05/15 03:55:11;;;;;;;7.33;1.10;;;19.20;80.00;;;;;;5007400;28;20596;-64
2023/05/15 03:57:40;;;;;;;6.57;1.40;;;19.10;81.10;;;;;;5003290;28;20204;-64
2023/05/15 04:00:09;;;;;;;3.00;1.30;;;19.10;82.70;;;;;;5002552;28;20198;-63
2023/05/15 04:02:37;;;;;;;3.23;0.93;;;18.90;83.60;;;;;;5003834;28;20636;-64
2023/05/15 04:05:05;;;;;;;4.40;1.20;;;18.80;84.30;;;;;;5000230;28;20181;-65
2023/05/15 04:07:36;;;;;;;7.90;2.00;;;18.70;85.10;;;;;;5005149;28;20822;-62
2023/05/15 04:10:05;;;;;;;8.17;2.60;;;18.70;85.00;;;;;;5001633;28;20209;-62
2023/05/15 04:12:34;;;;;;;10.03;3.67;;;18.90;85.80;;;;;;5000656;28;20189;-62
2023/05/15 04:15:23;;;;;;;5.50;2.40;;;19.70;85.80;;;;;;5004925;28;20213;-61
2023/05/15 04:17:54;;;;;;;6.27;2.27;;;20.40;84.20;;;;;;5001557;28;20268;-62
2023/05/15 04:20:24;;;;;;;5.97;1.90;;;20.70;83.00;;;;;;5001352;28;20272;-63
2023/05/15 04:22:52;;;;;;;4.87;1.60;;;20.90;80.70;;;;;;4999422;28;20651;-62
2023/05/15 04:25:19;;;;;;;5.20;1.97;;;21.00;81.20;;;;;;5003856;28;20276;-62
2023/05/15 04:27:48;;;;;;;7.87;2.10;;;21.10;81.90;;;;;;5002690;28;20205;-64
2023/05/15 04:30:15;;;;;;;4.10;1.40;;;22.00;81.00;;;;;;5000011;28;20276;-63
2023/05/15 04:32:43;;;;;;;6.07;1.20;;;22.80;77.70;;;;;;5001660;28;20239;-66
2023/05/15 04:35:12;;;;;;;2.33;1.00;;;23.60;73.50;;;;;;5004795;28;20205;-66
2023/05/15 04:37:41;;;;;;;4.40;1.07;;;24.20;70.60;;;;;;5002726;28;20220;-63
2023/05/15 04:40:09;;;;;;;2.87;0.93;;;24.50;69.60;;;;;;5000837;28;20561;-62
2023/05/15 04:42:37;;;;;;;1.27;0.80;;;23.90;63.90;;;;;;4999741;28;20194;-63
2023/05/15 04:45:05;;;;;;;4.43;1.13;;;23.40;67.90;;;;;;5005141;28;20188;-63
2023/05/15 04:47:32;;;;;;;2.57;0.90;;;23.80;67.20;;;;;;4998345;28;20194;-64
2023/05/15 04:50:00;;;;;;;3.60;1.07;;;23.50;65.80;;;;;;5000688;28;20216;-63
2023/05/15 04:52:27;;;;;;;5.40;1.30;;;23.80;67.70;;;;;;5001778;28;20189;-64
2023/05/15 04:54:54;;;;;;;6.93;1.20;;;24.20;65.30;;;;;;5005753;28;20272;-67
2023/05/15 04:57:22;;;;;;;3.63;1.17;;;24.50;62.20;;;;;;5004323;28;20196;-65
2023/05/15 04:59:49;;;;;;;0.83;0.60;;;24.90;60.40;;;;;;5000846;28;20189;-69
2023/05/15 05:02:23;;;;;;;1.97;1.00;;;25.10;58.70;;;;;;5002591;28;20197;-64
2023/05/15 05:04:51;;;;;;;4.53;1.00;;;25.30;60.60;;;;;;5003847;28;20307;-67
2023/05/15 05:07:18;;;;;;;3.23;1.00;;;25.60;58.50;;;;;;5004916;28;20236;-65
2023/05/15 05:09:45;;;;;;;1.87;1.00;;;25.30;57.80;;;;;;5008527;28;20221;-68
2023/05/15 05:12:13;;;;;;;2.73;0.73;;;25.20;60.00;;;;;;5003823;28;20726;-69
2023/05/15 05:14:41;;;;;;;3.50;0.90;;;25.30;57.10;;;;;;5005293;28;20178;-68
2023/05/15 05:17:09;;;;;;;2.13;0.80;;;25.30;58.40;;;;;;5003336;28;20655;-65
2023/05/15 05:19:36;;;;;;;4.07;0.80;;;25.00;59.00;;;;;;5003945;28;20733;-67
2023/05/15 05:22:07;;;;;;;3.03;0.90;;;25.10;58.40;;;;;;5004367;28;20186;-66
2023/05/15 05:24:36;;;;;;;5.93;1.13;;;25.60;57.40;;;;;;5003118;28;20198;-64
2023/05/15 05:27:04;;;;;;;2.53;0.97;;;25.80;56.10;;;;;;5006995;28;20204;-67
2023/05/15 05:29:32;;;;;;;3.13;0.80;;;25.60;54.70;;;;;;5005648;28;20232;-67
2023/05/15 05:32:00;;;;;;;4.70;3.77;;;24.80;58.00;;;;;;5007114;28;20191;-64
2023/05/15 05:34:27;;;;;;;5.00;2.80;;;25.20;55.00;;;;;;5001406;28;20190;-66
2023/05/15 05:36:54;;;;;;;4.03;1.93;;;24.30;61.90;;;;;;5007100;28;20197;-68
2023/05/15 05:39:22;;;;;;;4.97;1.30;;;24.80;58.20;;;;;;5006329;28;20531;-66
2023/05/15 05:41:49;;;;;;;2.50;0.83;;;25.60;56.00;;;;;;5005905;28;20192;-67
2023/05/15 05:44:17;;;;;;;2.77;1.07;;;25.80;55.00;;;;;;5007602;28;20631;-64
2023/05/15 05:46:44;;;;;;;2.27;1.00;;;25.60;55.10;;;;;;5006481;28;20235;-67
2023/05/15 05:49:11;;;;;;;2.03;0.90;;;25.60;55.30;;;;;;5002418;28;20198;-64
2023/05/15 05:51:39;;;;;;;4.47;1.20;;;25.80;53.80;;;;;;5007000;28;20660;-63
2023/05/15 05:54:06;;;;;;;2.80;1.03;;;25.90;54.00;;;;;;4999987;28;20718;-65
2023/05/15 05:56:33;;;;;;;2.70;1.10;;;25.80;54.80;;;;;;5006078;28;20193;-67
2023/05/15 05:59:01;;;;;;;1.60;1.03;;;25.90;55.30;;;;;;5008486;28;20189;-67
2023/05/15 06:01:28;;;;;;;2.53;1.03;;;25.20;56.80;;;;;;5003729;28;20178;-63
2023/05/15 06:03:56;;;;;;;4.23;1.20;;;24.90;58.80;;;;;;5005772;28;20181;-64
2023/05/15 06:06:23;;;;;;;2.47;1.50;;;24.00;59.80;;;;;;5005947;28;20824;-64
2023/05/15 06:08:50;;;;;;;5.10;1.77;;;23.00;62.60;;;;;;5004865;28;20197;-63
2023/05/15 06:11:18;;;;;;;4.37;1.10;;;22.50;65.80;;;;;;5004745;28;20232;-63
2023/05/15 06:13:45;;;;;;;6.83;1.20;;;22.20;66.30;;;;;;5002251;28;20248;-65
2023/05/15 06:16:12;;;;;;;1.90;1.27;;;21.80;68.00;;;;;;5007158;28;20236;-64
2023/05/15 06:18:40;;;;;;;4.63;1.23;;;21.50;69.40;;;;;;5005407;28;20194;-64
2023/05/15 06:21:07;;;;;;;3.37;1.13;;;21.20;70.10;;;;;;5006425;28;20269;-64
2023/05/15 06:23:35;;;;;;;3.20;1.27;;;21.00;70.70;;;;;;5005252;28;20280;-63
2023/05/15 06:26:03;;;;;;;2.90;1.20;;;20.90;70.70;;;;;;5004834;28;21354;-66
2023/05/15 06:28:30;;;;;;;4.87;1.30;;;20.70;71.30;;;;;;5004831;28;20186;-65
2023/05/15 06:30:57;;;;;;;3.30;1.30;;;20.40;72.40;;;;;;5011655;28;20240;-63
2023/05/15 06:33:25;;;;;;;2.97;1.00;;;20.20;74.10;;;;;;5000592;28;20185;-68
2023/05/15 06:35:53;;;;;;;4.07;1.27;;;20.00;74.80;;;;;;5006580;28;20193;-67
2023/05/15 06:38:20;;;;;;;5.83;1.50;;;19.90;75.80;;;;;;5002496;28;20186;-67
2023/05/15 06:40:47;;;;;;;3.47;1.17;;;19.80;76.40;;;;;;5004428;28;20198;-67
2023/05/15 06:43:15;;;;;;;3.73;1.10;;;19.70;76.90;;;;;;5004891;28;20197;-67
2023/05/15 06:45:42;;;;;;;6.03;1.47;;;19.60;77.50;;;;;;5008256;28;20189;-65
2023/05/15 06:48:09;;;;;;;3.00;1.10;;;19.40;78.10;;;;;;5003840;28;20198;-67
2023/05/15 06:50:36;;;;;;;4.73;1.47;;;19.20;78.90;;;;;;5001585;28;20684;-68
2023/05/15 06:53:04;;;;;;;3.97;1.40;;;19.10;79.60;;;;;;5003691;28;20244;-64
2023/05/15 06:55:33;;;;;;;3.73;1.97;;;18.90;79.80;;;;;;5005452;28;20272;-66
2023/05/15 06:58:00;;;;;;;2.23;1.30;;;18.80;80.30;;;;;;5005126;28;20204;-65
2023/05/15 07:00:28;;;;;;;3.93;1.80;;;18.50;80.50;;;;;;5010310;28;20659;-65
2023/05/15 07:02:56;;;;;;;2.93;1.50;;;18.50;80.40;;;;;;5007336;28;20189;-63
2023/05/15 07:05:23;;;;;;;2.40;1.30;;;18.30;79.70;;;;;;5005342;28;20289;-65
2023/05/15 07:07:51;;;;;;;2.33;1.00;;;18.30;80.10;;;;;;4999725;28;20258;-65
2023/05/15 07:10:18;;;;;;;3.17;1.17;;;18.20;80.30;;;;;;4999341;28;20225;-65
2023/05/15 07:12:45;;;;;;;2.00;0.97;;;18.00;80.70;;;;;;5007302;28;20207;-65
2023/05/15 07:15:13;;;;;;;2.33;0.93;;;17.90;81.30;;;;;;5005651;28;20230;-66
2023/05/15 07:17:40;;;;;;;4.33;1.20;;;17.80;81.20;;;;;;5003720;28;20751;-65
2023/05/15 07:20:08;;;;;;;3.50;1.30;;;17.80;81.80;;;;;;4998804;28;20193;-64
2023/05/15 07:22:35;;;;;;;4.00;1.03;;;17.60;81.80;;;;;;5006821;28;20196;-63
2023/05/15 07:25:03;;;;;;;3.13;1.23;;;17.50;82.40;;;;;;5000974;28;20650;-64
2023/05/15 07:27:30;;;;;;;3.73;1.60;;;17.40;82.30;;;;;;5001033;28;20590;-66
2023/05/15 07:29:57;;;;;;;2.47;1.30;;;17.30;82.40;;;;;;5004082;28;20549;-64
2023/05/15 07:32:25;;;;;;;4.87;1.77;;;17.30;82.60;;;;;;5002850;28;20248;-64
2023/05/15 07:34:52;;;;;;;4.07;1.60;;;17.20;82.80;;;;;;5000903;28;20762;-64
2023/05/15 07:37:20;;;;;;;4.93;1.87;;;17.20;83.00;;;;;;5004423;28;20189;-65
2023/05/15 07:39:47;;;;;;;4.10;1.87;;;17.10;83.30;;;;;;5003191;28;20658;-66
2023/05/15 07:42:14;;;;;;;3.73;1.80;;;17.10;83.20;;;;;;5002589;28;20189;-67
2023/05/15 07:44:42;;;;;;;6.33;2.30;;;17.10;83.40;;;;;;5005777;28;20539;-67
2023/05/15 07:47:09;;;;;;;2.53;1.50;;;17.00;83.50;;;;;;5002604;28;20647;-67
2023/05/15 07:49:36;;;;;;;2.27;2.07;;;17.00;83.40;;;;;;5003561;28;20214;-64
2023/05/15 07:52:04;;;;;;;5.80;2.27;;;16.90;83.80;;;;;;4999791;28;20189;-67
2023/05/15 07:54:31;;;;;;;3.53;2.13;;;16.90;83.80;;;;;;5004799;28;20188;-64
2023/05/15 07:56:59;;;;;;;2.90;2.20;;;16.80;84.00;;;;;;5004923;28;20232;-66
2023/05/15 07:59:26;;;;;;;4.03;2.47;;;16.80;83.90;;;;;;5004449;28;20587;-65
2023/05/15 08:01:54;;;;;;;3.90;2.30;;;16.80;84.30;;;;;;5002713;28;20232;-66
2023/05/15 08:04:23;;;;;;;4.53;2.80;;;16.80;84.40;;;;;;5003407;28;20197;-66
2023/05/15 08:06:50;;;;;;;4.73;2.63;;;16.70;84.60;;;;;;5007706;28;20196;-66
2023/05/15 08:09:18;;;;;;;6.43;3.27;;;16.70;84.80;;;;;;5000652;28;20181;-67
2023/05/15 08:11:45;;;;;;;5.00;2.53;;;16.70;85.20;;;;;;5001367;28;20196;-64
2023/05/15 08:14:12;;;;;;;5.57;3.20;;;16.70;85.30;;;;;;5004263;28;20192;-62
2023/05/15 08:16:40;;;;;;;8.60;3.63;;;16.60;85.80;;;;;;5003414;28;20587;-64
2023/05/15 08:19:09;;;;;;;5.63;2.90;;;16.70;86.10;;;;;;5008092;28;20197;-64
2023/05/15 08:21:36;;;;;;;5.47;3.13;;;16.60;86.10;;;;;;5003440;28;20590;-63
2023/05/15 08:24:04;;;;;;;5.87;3.20;;;16.60;86.20;;;;;;5002945;28;20197;-65
2023/05/15 08:26:31;;;;;;;7.90;3.10;;;16.50;86.50;;;;;;5004697;28;20648;-66
2023/05/15 08:28:59;;;;;;;5.53;2.83;;;16.50;86.50;;;;;;5003097;28;20666;-63
2023/05/15 08:31:26;;;;;;;3.27;2.93;;;16.40;86.70;;;;;;5003403;28;20234;-64
2023/05/15 08:33:54;;;;;;;9.87;3.20;;;16.30;86.70;;;;;;5000911;28;20199;-64
2023/05/15 08:36:21;;;;;;;7.37;5.70;;;16.30;86.80;;;;;;5009227;28;20242;-64
2023/05/15 08:38:48;;;;;;;11.97;8.67;;;16.30;87.00;;;;;;5007025;28;20195;-64
2023/05/15 08:41:30;;;;;;;14.83;12.33;;;16.20;87.20;;;;;;5009883;28;20580;-65
2023/05/15 08:43:58;;;;;;;20.67;15.23;;;16.20;87.40;;;;;;5007383;28;20188;-64
2023/05/15 08:46:26;;;;;;;16.77;12.20;;;16.20;87.40;;;;;;5006691;28;20189;-65
2023/05/15 08:48:55;;;;;;;16.17;12.27;;;16.10;87.40;;;;;;5004688;28;20722;-64
2023/05/15 08:51:24;;;;;;;17.63;13.70;;;16.10;87.50;;;;;;5003324;28;20224;-66
2023/05/15 08:53:52;;;;;;;23.10;14.17;;;16.10;87.60;;;;;;5006360;28;20190;-64
2023/05/15 08:56:19;;;;;;;15.43;11.47;;;16.00;87.50;;;;;;5008070;28;20188;-65
2023/05/15 08:58:46;;;;;;;18.87;13.20;;;16.00;87.60;;;;;;5004896;28;20189;-65
2023/05/15 09:01:15;;;;;;;26.47;12.90;;;16.00;87.90;;;;;;5009939;28;20198;-63
2023/05/15 09:03:42;;;;;;;22.80;13.03;;;15.90;87.90;;;;;;5007075;28;20603;-63
2023/05/15 09:06:10;;;;;;;22.57;14.87;;;15.90;87.90;;;;;;5008010;28;20190;-66
2023/05/15 09:08:39;;;;;;;22.93;17.07;;;15.80;88.00;;;;;;5007199;28;20198;-64
2023/05/15 09:11:06;;;;;;;22.57;13.77;;;15.80;88.10;;;;;;5008239;28;20722;-65
2023/05/15 09:13:34;;;;;;;19.07;15.23;;;15.80;88.40;;;;;;5002946;28;20192;-64
2023/05/15 09:16:01;;;;;;;22.57;13.87;;;15.80;88.40;;;;;;5002195;28;20761;-67
2023/05/15 09:18:29;;;;;;;20.10;14.87;;;15.80;88.50;;;;;;5005571;28;20193;-63
2023/05/15 09:21:16;;;;;;;20.73;16.63;;;15.80;88.60;;;;;;5010388;28;20192;-64
2023/05/15 09:23:43;;;;;;;17.43;13.90;;;15.80;88.70;;;;;;5002827;28;20657;-64
2023/05/15 09:26:13;;;;;;;18.03;13.63;;;15.80;88.80;;;;;;5003076;28;20338;-66
2023/05/15 09:28:40;;;;;;;19.43;14.93;;;15.80;88.80;;;;;;5004478;28;20279;-63
2023/05/15 09:31:08;;;;;;;26.20;21.20;;;15.70;88.80;;;;;;5009955;28;20642;-68
2023/05/15 09:33:40;;;;;;;23.13;18.73;;;15.60;88.90;;;;;;5006381;28;20520;-66
2023/05/15 09:36:09;;;;;;;24.03;18.67;;;15.60;89.10;;;;;;5008821;28;20677;-64
2023/05/15 09:38:42;;;;;;;23.93;18.40;;;15.50;89.20;;;;;;5000425;28;20270;-65
2023/05/15 09:41:10;;;;;;;19.50;15.30;;;15.50;89.50;;;;;;5007208;28;20184;-64
2023/05/15 09:43:40;;;;;;;22.30;15.77;;;15.40;89.50;;;;;;5003995;28;20180;-64
2023/05/15 09:46:10;;;;;;;23.40;18.10;;;15.40;89.60;;;;;;5007186;28;20647;-64
2023/05/15 09:48:38;;;;;;;23.47;17.33;;;15.40;89.60;;;;;;5005431;28;20201;-63
2023/05/15 09:51:14;;;;;;;17.60;14.57;;;15.30;89.80;;;;;;5009478;28;20226;-64
2023/05/15 09:53:41;;;;;;;14.37;11.50;;;15.30;89.60;;;;;;5003494;28;20190;-67
2023/05/15 09:56:10;;;;;;;17.70;12.87;;;15.30;90.00;;;;;;5004112;28;20787;-64
2023/05/15 09:58:37;;;;;;;15.20;12.47;;;15.30;89.80;;;;;;5002728;28;20220;-66
2023/05/15 10:01:12;;;;;;;13.43;9.43;;;15.30;89.80;;;;;;5003828;28;21424;-66
2023/05/15 10:03:42;;;;;;;12.30;9.47;;;15.30;89.70;;;;;;5002831;28;20207;-65
2023/05/15 10:06:20;;;;;;;10.43;8.73;;;15.20;89.70;;;;;;5007033;28;20245;-66
2023/05/15 10:08:54;;;;;;;15.87;9.97;;;15.30;90.00;;;;;;5001787;28;20199;-65
2023/05/15 10:11:22;;;;;;;13.50;12.03;;;15.20;89.90;;;;;;5009754;28;20217;-65
2023/05/15 10:13:50;;;;;;;14.00;12.53;;;15.20;89.90;;;;;;5002929;28;20973;-67
2023/05/15 10:16:21;;;;;;;16.80;13.00;;;15.20;89.80;;;;;;5007793;28;20360;-67
2023/05/15 10:18:49;;;;;;;15.20;12.87;;;15.10;89.80;;;;;;5002959;28;20200;-66
2023/05/15 10:21:19;;;;;;;10.77;9.77;;;15.10;90.10;;;;;;5002710;28;20197;-66
2023/05/15 10:23:49;;;;;;;11.20;8.37;;;15.10;90.10;;;;;;5002934;28;20282;-64
2023/05/15 10:26:32;;;;;;;9.60;8.47;;;15.10;90.00;;;;;;5002309;28;20186;-65
2023/05/15 10:29:01;;;;;;;10.60;7.57;;;15.00;90.20;;;;;;4998340;28;20663;-65
2023/05/15 10:31:30;;;;;;;12.63;10.77;;;15.10;90.30;;;;;;5006501;28;20688;-66
2023/05/15 10:33:58;;;;;;;10.23;8.87;;;15.10;90.30;;;;;;5005906;28;20185;-67
2023/05/15 10:36:26;;;;;;;13.97;10.00;;;15.10;90.40;;;;;;5006116;28;20283;-66
2023/05/15 10:38:53;;;;;;;13.63;10.67;;;15.10;90.60;;;;;;5007563;28;20562;-69
2023/05/15 10:41:22;;;;;;;12.23;10.77;;;15.10;90.60;;;;;;5003971;28;20277;-65
2023/05/15 10:43:51;;;;;;;13.07;11.67;;;15.00;90.40;;;;;;5004887;28;20195;-69
2023/05/15 10:46:20;;;;;;;12.27;11.03;;;14.90;90.50;;;;;;5005553;28;20183;-68
2023/05/15 10:48:47;;;;;;;11.17;10.07;;;14.80;90.60;;;;;;5000861;28;20189;-68
2023/05/15 10:51:23;;;;;;;12.00;10.77;;;14.80;90.70;;;;;;5003519;28;20216;-68
2023/05/15 10:53:51;;;;;;;12.20;11.00;;;14.80;90.60;;;;;;5005242;28;20186;-69
2023/05/15 10:56:20;;;;;;;12.17;9.10;;;14.80;90.60;;;;;;5008733;28;20189;-67
2023/05/15 10:58:49;;;;;;;12.60;11.37;;;14.70;90.60;;;;;;5003164;28;20539;-67
2023/05/15 11:01:36;;;;;;;12.47;11.27;;;14.70;90.80;;;;;;5006729;28;20196;-67
2023/05/15 11:04:11;;;;;;;12.83;10.77;;;14.70;90.70;;;;;;5001132;28;20185;-65
2023/05/15 11:06:44;;;;;;;12.80;11.50;;;14.70;90.80;;;;;;5002830;28;20193;-68
2023/05/15 11:09:26;;;;;;;14.27;11.93;;;14.70;90.80;;;;;;5002598;28;20241;-64
2023/05/15 11:11:59;;;;;;;16.03;12.27;;;14.80;91.00;;;;;;5003026;28;20217;-64
2023/05/15 11:14:27;;;;;;;14.50;13.10;;;14.70;91.00;;;;;;5001854;28;20200;-64
2023/05/15 11:16:56;;;;;;;15.93;14.23;;;14.70;91.00;;;;;;5005152;28;20229;-66
2023/05/15 11:19:23;;;;;;;16.20;14.57;;;14.70;91.20;;;;;;5002936;28;20661;-64
2023/05/15 11:22:09;;;;;;;16.87;15.33;;;14.80;91.20;;;;;;5003661;28;20737;-66
2023/05/15 11:24:54;;;;;;;16.77;15.07;;;14.80;91.20;;;;;;5004117;28;20198;-65
2023/05/15 11:27:32;;;;;;;16.63;15.03;;;14.70;91.20;;;;;;5005500;28;20276;-64
2023/05/15 11:30:10;;;;;;;17.17;15.67;;;14.70;91.20;;;;;;5000783;28;20205;-66
2023/05/15 11:32:41;;;;;;;17.00;15.27;;;14.60;91.30;;;;;;5002481;28;20276;-64
2023/05/15 11:35:13;;;;;;;17.33;15.90;;;14.60;91.20;;;;;;5002359;28;20194;-67
2023/05/15 11:37:48;;;;;;;20.70;19.00;;;14.40;91.20;;;;;;5000438;28;20264;-64
2023/05/15 11:40:24;;;;;;;16.97;15.57;;;14.50;91.40;;;;;;5004885;28;20191;-64
2023/05/15 11:43:03;;;;;;;20.10;18.37;;;14.50;91.50;;;;;;5003134;28;20850;-66
2023/05/15 11:45:37;;;;;;;19.43;17.53;;;14.50;91.50;;;;;;5001687;28;20220;-65
2023/05/15 11:48:07;;;;;;;19.87;18.03;;;14.40;91.40;;;;;;5001630;28;20230;-65
2023/05/15 11:50:35;;;;;;;19.60;17.90;;;14.40;91.50;;;;;;5004279;28;20580;-64
2023/05/15 11:53:07;;;;;;;21.30;19.37;;;14.40;91.60;;;;;;4998642;28;20190;-64
2023/05/15 11:55:37;;;;;;;23.10;21.20;;;14.40;91.60;;;;;;5003491;28;20196;-63
2023/05/15 11:58:05;;;;;;;21.67;19.50;;;14.40;91.60;;;;;;5005400;28;20216;-66
2023/05/15 12:00:33;;;;;;;28.13;26.23;;;14.30;91.60;;;;;;5001535;28;20244;-63
2023/05/15 12:03:02;;;;;;;30.00;27.77;;;14.30;91.70;;;;;;5005379;28;20262;-63
2023/05/15 12:05:30;;;;;;;27.73;25.63;;;14.30;91.70;;;;;;5001674;28;20632;-64
2023/05/15 12:07:58;;;;;;;31.33;29.07;;;14.30;91.90;;;;;;4998439;28;20197;-65
2023/05/15 12:10:25;;;;;;;26.57;24.60;;;14.30;91.90;;;;;;5003167;28;20359;-67
2023/05/15 12:12:53;;;;;;;31.83;29.70;;;14.30;92.00;;;;;;5006283;28;20644;-63
2023/05/15 12:15:20;;;;;;;29.53;27.40;;;14.30;91.90;;;;;;5004373;28;20260;-62
2023/05/15 12:17:48;;;;;;;24.07;21.97;;;14.20;91.90;;;;;;5006755;28;20184;-64
2023/05/15 12:20:18;;;;;;;25.93;24.03;;;14.30;92.10;;;;;;5002414;28;20268;-64
2023/05/15 12:22:46;;;;;;;94.07;88.67;;;14.20;92.20;;;;;;5004424;28;20235;-64
2023/05/15 12:25:16;;;;;;;108.07;102.07;;;14.30;92.20;;;;;;5002360;28;20732;-63
2023/05/15 12:27:44;;;;;;;125.33;118.43;;;14.30;92.30;;;;;;5007748;28;20205;-65
2023/05/15 12:30:12;;;;;;;124.83;118.10;;;14.20;92.20;;;;;;5006903;28;20219;-65
2023/05/15 12:32:40;;;;;;;115.13;108.63;;;14.20;92.20;;;;;;5003408;28;20576;-63
2023/05/15 12:35:09;;;;;;;118.07;111.57;;;14.20;92.20;;;;;;5002363;28;20641;-65
2023/05/15 12:37:36;;;;;;;120.33;113.60;;;14.20;92.40;;;;;;5004247;28;20255;-66
2023/05/15 12:40:13;;;;;;;116.00;109.67;;;14.00;92.30;;;;;;5002282;28;20648;-66
2023/05/15 12:42:44;;;;;;;123.17;116.57;;;14.00;92.40;;;;;;5003266;28;20189;-64
2023/05/15 12:45:16;;;;;;;127.83;121.10;;;14.10;92.50;;;;;;5003652;28;21166;-64
2023/05/15 12:47:45;;;;;;;133.63;126.73;;;14.00;92.40;;;;;;5003617;28;20811;-65
2023/05/15 12:50:17;;;;;;;145.10;137.43;;;14.00;92.40;;;;;;5005798;28;20221;-64